Terminal Aerodrome Forecast
Issued by NWS

Home | Current Version | Previous Version | Text Only | Print | Product List | Glossary On
Versions: 1 2 3 4 5 6 7 8 9 10 11 12 13 14 15
000
FTUS45 KTFX 261142
TAFHLN
TAF
KHLN 261142Z 2612/2712 VRB05KT P6SM BKN050
     FM261800 28008KT P6SM VCSH BKN050
     FM262100 27010KT P6SM -SHRA VCTS SCT025 BKN050CB
     FM270200 28008KT P6SM -SHRA SCT020 BKN040
     FM270600 VRB04KT P6SM SCT030 BKN060=

USA.gov is the U.S. government's official web portal to all federal, state and local government web resources and services.